sensor_id;sensor_type;location;lat;lon;timestamp;pressure;altitude;pressure_sealevel;temperature;humidity
51287;BME280;37364;46.974;18.916;2022-08-14T00:01:01;155610.00;;;20.83;76.68
51287;BME280;37364;46.974;18.916;2022-08-14T00:03:36;155610.00;;;20.83;76.90
51287;BME280;37364;46.974;18.916;2022-08-14T00:06:07;155587.88;;;20.74;76.83
51287;BME280;37364;46.974;18.916;2022-08-14T00:08:55;155577.44;;;20.70;75.97
51287;BME280;37364;46.974;18.916;2022-08-14T00:11:28;155550.06;;;20.59;78.36
51287;BME280;37364;46.974;18.916;2022-08-14T00:13:58;155525.25;;;20.49;79.01
51287;BME280;37364;46.974;18.916;2022-08-14T00:16:29;155505.69;;;20.42;79.75
51287;BME280;37364;46.974;18.916;2022-08-14T00:19:11;155479.63;;;20.31;79.84
51287;BME280;37364;46.974;18.916;2022-08-14T00:21:45;155475.72;;;20.30;80.38
51287;BME280;37364;46.974;18.916;2022-08-14T00:24:17;155480.94;;;20.32;79.18
51287;BME280;37364;46.974;18.916;2022-08-14T00:26:58;155461.38;;;20.24;79.56
51287;BME280;37364;46.974;18.916;2022-08-14T00:29:29;155450.97;;;20.20;81.01
51287;BME280;37364;46.974;18.916;2022-08-14T00:32:09;155434.03;;;20.13;81.01
51287;BME280;37364;46.974;18.916;2022-08-14T00:34:59;155402.75;;;20.01;81.89
51287;BME280;37364;46.974;18.916;2022-08-14T00:37:30;155376.69;;;19.91;83.21
51287;BME280;37364;46.974;18.916;2022-08-14T00:40:02;155379.31;;;19.92;82.55
51287;BME280;37364;46.974;18.916;2022-08-14T00:42:55;155376.69;;;19.91;82.38
51287;BME280;37364;46.974;18.916;2022-08-14T00:45:28;155346.72;;;19.79;82.25
51287;BME280;37364;46.974;18.916;2022-08-14T00:47:58;155353.28;;;19.82;81.07
51287;BME280;37364;46.974;18.916;2022-08-14T00:50:29;155331.09;;;19.73;82.06
51287;BME280;37364;46.974;18.916;2022-08-14T00:53:02;155303.72;;;19.62;83.50
51287;BME280;37364;46.974;18.916;2022-08-14T00:55:37;155288.06;;;19.56;84.48
51287;BME280;37364;46.974;18.916;2022-08-14T00:58:11;155276.34;;;19.51;85.21
51287;BME280;37364;46.974;18.916;2022-08-14T01:01:00;155256.81;;;19.44;85.22
51287;BME280;37364;46.974;18.916;2022-08-14T01:03:33;155250.31;;;19.41;85.51
51287;BME280;37364;46.974;18.916;2022-08-14T01:06:09;155252.91;;;19.42;84.63
51287;BME280;37364;46.974;18.916;2022-08-14T01:08:44;155255.53;;;19.43;83.47
51287;BME280;37364;46.974;18.916;2022-08-14T01:11:24;155247.69;;;19.40;85.13
51287;BME280;37364;46.974;18.916;2022-08-14T01:14:04;155236.00;;;19.35;83.89
51287;BME280;37364;46.974;18.916;2022-08-14T01:16:54;155226.88;;;19.32;83.47
51287;BME280;37364;46.974;18.916;2022-08-14T01:19:25;155208.63;;;19.25;83.66
51287;BME280;37364;46.974;18.916;2022-08-14T01:22:12;155185.22;;;19.15;84.62
51287;BME280;37364;46.974;18.916;2022-08-14T01:24:45;155200.84;;;19.22;84.54
51287;BME280;37364;46.974;18.916;2022-08-14T01:27:18;155193.00;;;19.19;86.19
51287;BME280;37364;46.974;18.916;2022-08-14T01:29:56;155176.09;;;19.12;85.92
51287;BME280;37364;46.974;18.916;2022-08-14T01:32:31;155150.06;;;19.02;85.35
51287;BME280;37364;46.974;18.916;2022-08-14T01:35:09;155147.44;;;19.01;85.84
51287;BME280;37364;46.974;18.916;2022-08-14T01:38:02;155134.44;;;18.95;87.57
51287;BME280;37364;46.974;18.916;2022-08-14T01:40:36;155118.78;;;18.89;89.25
51287;BME280;37364;46.974;18.916;2022-08-14T01:43:09;155114.91;;;18.88;86.59
51287;BME280;37364;46.974;18.916;2022-08-14T01:45:48;155105.78;;;18.84;87.89
51287;BME280;37364;46.974;18.916;2022-08-14T01:48:33;155082.28;;;18.75;88.31
51287;BME280;37364;46.974;18.916;2022-08-14T01:51:04;155082.28;;;18.75;89.44
51287;BME280;37364;46.974;18.916;2022-08-14T01:53:50;155079.72;;;18.74;86.73
51287;BME280;37364;46.974;18.916;2022-08-14T01:56:23;155064.06;;;18.68;89.05
51287;BME280;37364;46.974;18.916;2022-08-14T01:59:06;155062.75;;;18.67;89.68
51287;BME280;37364;46.974;18.916;2022-08-14T02:01:44;155041.94;;;18.59;90.21
51287;BME280;37364;46.974;18.916;2022-08-14T02:04:17;155022.41;;;18.51;91.33
51287;BME280;37364;46.974;18.916;2022-08-14T02:07:08;154996.41;;;18.41;92.25
51287;BME280;37364;46.974;18.916;2022-08-14T02:09:44;154982.06;;;18.35;92.18
51287;BME280;37364;46.974;18.916;2022-08-14T02:12:22;154963.84;;;18.28;92.91
51287;BME280;37364;46.974;18.916;2022-08-14T02:14:56;154969.03;;;18.30;91.37
51287;BME280;37364;46.974;18.916;2022-08-14T02:17:28;154972.94;;;18.32;91.72
51287;BME280;37364;46.974;18.916;2022-08-14T02:19:58;154982.06;;;18.35;91.54
51287;BME280;37364;46.974;18.916;2022-08-14T02:22:30;154996.41;;;18.41;89.71
51287;BME280;37364;46.974;18.916;2022-08-14T02:25:15;154995.09;;;18.41;89.65
51287;BME280;37364;46.974;18.916;2022-08-14T02:27:47;154979.44;;;18.34;92.40
51287;BME280;37364;46.974;18.916;2022-08-14T02:30:37;154966.47;;;18.29;92.41
51287;BME280;37364;46.974;18.916;2022-08-14T02:33:08;154970.38;;;18.31;93.14
51287;BME280;37364;46.974;18.916;2022-08-14T02:35:40;154970.38;;;18.31;91.62
51287;BME280;37364;46.974;18.916;2022-08-14T02:38:19;154975.56;;;18.33;91.21
51287;BME280;37364;46.974;18.916;2022-08-14T02:41:04;154961.25;;;18.27;93.98
51287;BME280;37364;46.974;18.916;2022-08-14T02:43:37;154966.47;;;18.29;89.26
51287;BME280;37364;46.974;18.916;2022-08-14T02:46:14;154956.06;;;18.25;90.85
51287;BME280;37364;46.974;18.916;2022-08-14T02:48:50;154931.31;;;18.15;94.07
51287;BME280;37364;46.974;18.916;2022-08-14T02:51:32;154926.13;;;18.13;92.93
51287;BME280;37364;46.974;18.916;2022-08-14T02:54:04;154894.84;;;18.01;95.43
51287;BME280;37364;46.974;18.916;2022-08-14T02:56:41;154885.78;;;17.97;94.12
51287;BME280;37364;46.974;18.916;2022-08-14T02:59:33;154913.09;;;18.08;94.97
51287;BME280;37364;46.974;18.916;2022-08-14T03:02:09;154894.84;;;18.01;97.05
51287;BME280;37364;46.974;18.916;2022-08-14T03:04:59;154897.47;;;18.02;94.18
51287;BME280;37364;46.974;18.916;2022-08-14T03:07:29;154887.06;;;17.98;97.92
51287;BME280;37364;46.974;18.916;2022-08-14T03:10:00;154887.06;;;17.98;97.17
51287;BME280;37364;46.974;18.916;2022-08-14T03:12:53;154880.59;;;17.95;94.61
51287;BME280;37364;46.974;18.916;2022-08-14T03:15:26;154897.47;;;18.02;91.05
51287;BME280;37364;46.974;18.916;2022-08-14T03:18:00;154894.84;;;18.01;93.16
51287;BME280;37364;46.974;18.916;2022-08-14T03:20:32;154872.75;;;17.92;98.01
51287;BME280;37364;46.974;18.916;2022-08-14T03:23:03;154851.94;;;17.84;100.00
51287;BME280;37364;46.974;18.916;2022-08-14T03:25:33;154845.38;;;17.82;99.74
51287;BME280;37364;46.974;18.916;2022-08-14T03:28:09;154848.00;;;17.83;99.18
51287;BME280;37364;46.974;18.916;2022-08-14T03:30:56;154850.63;;;17.84;100.00
51287;BME280;37364;46.974;18.916;2022-08-14T03:33:27;154848.00;;;17.83;100.00
51287;BME280;37364;46.974;18.916;2022-08-14T03:36:07;154842.78;;;17.81;100.00
51287;BME280;37364;46.974;18.916;2022-08-14T03:38:59;154844.06;;;17.81;100.00
51287;BME280;37364;46.974;18.916;2022-08-14T03:41:48;154841.50;;;17.80;100.00
51287;BME280;37364;46.974;18.916;2022-08-14T03:44:22;154840.16;;;17.79;100.00
51287;BME280;37364;46.974;18.916;2022-08-14T03:47:12;154824.56;;;17.73;100.00
51287;BME280;37364;46.974;18.916;2022-08-14T03:49:43;154821.97;;;17.72;100.00
51287;BME280;37364;46.974;18.916;2022-08-14T03:52:16;154834.97;;;17.77;100.00
51287;BME280;37364;46.974;18.916;2022-08-14T03:55:08;154840.16;;;17.79;100.00
51287;BME280;37364;46.974;18.916;2022-08-14T03:57:39;154795.97;;;17.62;100.00
51287;BME280;37364;46.974;18.916;2022-08-14T04:00:15;154814.16;;;17.69;100.00
51287;BME280;37364;46.974;18.916;2022-08-14T04:03:08;154794.63;;;17.62;100.00
51287;BME280;37364;46.974;18.916;2022-08-14T04:05:49;154806.38;;;17.66;100.00
51287;BME280;37364;46.974;18.916;2022-08-14T04:08:20;154812.88;;;17.69;100.00
51287;BME280;37364;46.974;18.916;2022-08-14T04:10:58;154798.53;;;17.63;100.00
51287;BME280;37364;46.974;18.916;2022-08-14T04:13:37;154785.53;;;17.58;100.00
51287;BME280;37364;46.974;18.916;2022-08-14T04:16:14;154793.34;;;17.61;100.00
51287;BME280;37364;46.974;18.916;2022-08-14T04:18:48;154816.78;;;17.70;100.00
51287;BME280;37364;46.974;18.916;2022-08-14T04:21:21;154819.34;;;17.71;100.00
51287;BME280;37364;46.974;18.916;2022-08-14T04:23:55;154837.59;;;17.78;100.00
51287;BME280;37364;46.974;18.916;2022-08-14T04:26:29;154853.25;;;17.85;100.00
51287;BME280;37364;46.974;18.916;2022-08-14T04:29:09;154881.88;;;17.96;100.00
51287;BME280;37364;46.974;18.916;2022-08-14T04:31:45;154871.47;;;17.92;100.00
51287;BME280;37364;46.974;18.916;2022-08-14T04:34:37;154884.44;;;17.97;100.00
51287;BME280;37364;46.974;18.916;2022-08-14T04:37:20;154896.19;;;18.02;100.00
51287;BME280;37364;46.974;18.916;2022-08-14T04:40:09;154927.41;;;18.14;100.00
51287;BME280;37364;46.974;18.916;2022-08-14T04:42:54;154923.50;;;18.12;100.00
51287;BME280;37364;46.974;18.916;2022-08-14T04:45:43;154939.09;;;18.18;100.00
51287;BME280;37364;46.974;18.916;2022-08-14T04:48:20;154966.47;;;18.29;100.00
51287;BME280;37364;46.974;18.916;2022-08-14T04:51:11;154980.78;;;18.35;100.00
51287;BME280;37364;46.974;18.916;2022-08-14T04:53:44;154995.09;;;18.41;100.00
51287;BME280;37364;46.974;18.916;2022-08-14T04:56:16;155022.41;;;18.51;100.00
51287;BME280;37364;46.974;18.916;2022-08-14T04:59:02;155049.78;;;18.62;100.00
51287;BME280;37364;46.974;18.916;2022-08-14T05:01:38;155079.72;;;18.74;100.00
51287;BME280;37364;46.974;18.916;2022-08-14T05:04:18;155104.50;;;18.84;100.00
51287;BME280;37364;46.974;18.916;2022-08-14T05:06:52;155147.44;;;19.01;100.00
51287;BME280;37364;46.974;18.916;2022-08-14T05:09:23;155148.72;;;19.01;100.00
51287;BME280;37364;46.974;18.916;2022-08-14T05:11:56;155166.97;;;19.08;100.00
51287;BME280;37364;46.974;18.916;2022-08-14T05:14:47;155203.41;;;19.23;100.00
51287;BME280;37364;46.974;18.916;2022-08-14T05:17:21;155230.78;;;19.33;100.00
51287;BME280;37364;46.974;18.916;2022-08-14T05:20:12;155263.31;;;19.46;100.00
51287;BME280;37364;46.974;18.916;2022-08-14T05:23:03;155282.84;;;19.54;99.88
51287;BME280;37364;46.974;18.916;2022-08-14T05:25:37;155299.81;;;19.61;99.35
51287;BME280;37364;46.974;18.916;2022-08-14T05:28:10;155297.19;;;19.60;99.40
51287;BME280;37364;46.974;18.916;2022-08-14T05:30:44;155295.91;;;19.59;100.00
51287;BME280;37364;46.974;18.916;2022-08-14T05:33:16;155321.94;;;19.69;99.21
51287;BME280;37364;46.974;18.916;2022-08-14T05:35:51;155328.53;;;19.72;99.13
51287;BME280;37364;46.974;18.916;2022-08-14T05:38:28;155362.34;;;19.85;98.20
51287;BME280;37364;46.974;18.916;2022-08-14T05:41:02;155441.81;;;20.17;96.31
51287;BME280;37364;46.974;18.916;2022-08-14T05:43:34;155516.09;;;20.46;95.35
51287;BME280;37364;46.974;18.916;2022-08-14T05:46:10;155568.31;;;20.66;94.59
51287;BME280;37364;46.974;18.916;2022-08-14T05:48:42;155630.84;;;20.91;93.34
51287;BME280;37364;46.974;18.916;2022-08-14T05:51:16;155610.00;;;20.83;94.10
51287;BME280;37364;46.974;18.916;2022-08-14T05:53:47;155599.59;;;20.79;93.89
51287;BME280;37364;46.974;18.916;2022-08-14T05:56:35;155548.72;;;20.59;95.52
51287;BME280;37364;46.974;18.916;2022-08-14T05:59:06;155578.72;;;20.70;95.17
51287;BME280;37364;46.974;18.916;2022-08-14T06:01:37;155610.00;;;20.83;93.99
51287;BME280;37364;46.974;18.916;2022-08-14T06:04:08;155590.44;;;20.75;95.20
51287;BME280;37364;46.974;18.916;2022-08-14T06:06:41;155561.75;;;20.64;95.02
51287;BME280;37364;46.974;18.916;2022-08-14T06:09:13;155522.66;;;20.48;96.31
51287;BME280;37364;46.974;18.916;2022-08-14T06:11:43;155538.28;;;20.54;95.98
51287;BME280;37364;46.974;18.916;2022-08-14T06:14:15;155563.09;;;20.64;95.86
51287;BME280;37364;46.974;18.916;2022-08-14T06:16:50;155569.59;;;20.67;95.81
51287;BME280;37364;46.974;18.916;2022-08-14T06:19:21;155570.91;;;20.67;95.32
51287;BME280;37364;46.974;18.916;2022-08-14T06:21:55;155580.03;;;20.71;95.61
51287;BME280;37364;46.974;18.916;2022-08-14T06:24:27;155576.09;;;20.69;94.16
51287;BME280;37364;46.974;18.916;2022-08-14T06:27:02;155591.75;;;20.76;94.63
51287;BME280;37364;46.974;18.916;2022-08-14T06:29:37;155694.75;;;21.16;93.22
51287;BME280;37364;46.974;18.916;2022-08-14T06:32:07;155763.91;;;21.43;91.92
51287;BME280;37364;46.974;18.916;2022-08-14T06:34:57;155759.91;;;21.42;91.79
51287;BME280;37364;46.974;18.916;2022-08-14T06:37:46;155869.53;;;21.85;90.36
51287;BME280;37364;46.974;18.916;2022-08-14T06:40:20;155924.31;;;22.06;87.67
51287;BME280;37364;46.974;18.916;2022-08-14T06:42:54;155929.50;;;22.08;87.81
51287;BME280;37364;46.974;18.916;2022-08-14T06:45:29;155916.50;;;22.03;88.30
51287;BME280;37364;46.974;18.916;2022-08-14T06:48:03;155872.16;;;21.86;88.52
51287;BME280;37364;46.974;18.916;2022-08-14T06:50:39;155853.88;;;21.79;89.39
51287;BME280;37364;46.974;18.916;2022-08-14T06:53:14;155869.53;;;21.85;89.29
51287;BME280;37364;46.974;18.916;2022-08-14T06:55:46;155887.78;;;21.92;89.84
51287;BME280;37364;46.974;18.916;2022-08-14T06:58:27;155887.78;;;21.92;89.32
51287;BME280;37364;46.974;18.916;2022-08-14T07:00:59;155896.94;;;21.96;89.26
51287;BME280;37364;46.974;18.916;2022-08-14T07:03:49;155916.50;;;22.03;90.65
51287;BME280;37364;46.974;18.916;2022-08-14T07:06:44;155877.38;;;21.88;89.90
51287;BME280;37364;46.974;18.916;2022-08-14T07:09:18;155883.88;;;21.90;90.27
51287;BME280;37364;46.974;18.916;2022-08-14T07:11:49;155890.38;;;21.93;89.05
51287;BME280;37364;46.974;18.916;2022-08-14T07:14:19;155903.44;;;21.98;90.89
51287;BME280;37364;46.974;18.916;2022-08-14T07:16:50;155934.72;;;22.10;89.98
51287;BME280;37364;46.974;18.916;2022-08-14T07:19:20;155904.72;;;21.99;89.09
51287;BME280;37364;46.974;18.916;2022-08-14T07:21:50;155939.94;;;22.12;89.06
51287;BME280;37364;46.974;18.916;2022-08-14T07:24:23;155967.38;;;22.23;88.20
51287;BME280;37364;46.974;18.916;2022-08-14T07:26:57;156009.16;;;22.40;87.51
51287;BME280;37364;46.974;18.916;2022-08-14T07:29:28;156010.44;;;22.40;86.54
51287;BME280;37364;46.974;18.916;2022-08-14T07:31:59;156099.16;;;22.75;85.69
51287;BME280;37364;46.974;18.916;2022-08-14T07:37:07;156120.03;;;22.83;85.55
51287;BME280;37364;46.974;18.916;2022-08-14T07:39:41;156161.84;;;23.00;84.13
51287;BME280;37364;46.974;18.916;2022-08-14T07:42:11;156197.13;;;23.14;84.07
51287;BME280;37364;46.974;18.916;2022-08-14T07:44:45;156184.06;;;23.08;84.15
51287;BME280;37364;46.974;18.916;2022-08-14T07:47:22;156271.53;;;23.43;82.15
51287;BME280;37364;46.974;18.916;2022-08-14T07:49:59;156432.16;;;24.06;80.55
51287;BME280;37364;46.974;18.916;2022-08-14T07:52:30;156522.28;;;24.41;78.80
51287;BME280;37364;46.974;18.916;2022-08-14T07:55:06;156571.97;;;24.61;76.86
51287;BME280;37364;46.974;18.916;2022-08-14T07:57:38;156616.41;;;24.78;76.59
51287;BME280;37364;46.974;18.916;2022-08-14T08:00:17;156694.81;;;25.09;76.89
51287;BME280;37364;46.974;18.916;2022-08-14T08:02:57;156743.16;;;25.28;74.78
51287;BME280;37364;46.974;18.916;2022-08-14T08:05:30;156705.25;;;25.13;74.69
51287;BME280;37364;46.974;18.916;2022-08-14T08:08:04;156907.91;;;25.93;73.09
51287;BME280;37364;46.974;18.916;2022-08-14T08:10:56;156926.22;;;26.00;72.03
51287;BME280;37364;46.974;18.916;2022-08-14T08:13:32;156926.22;;;26.00;71.20
51287;BME280;37364;46.974;18.916;2022-08-14T08:16:05;156815.09;;;25.56;71.01
51287;BME280;37364;46.974;18.916;2022-08-14T08:18:37;156896.13;;;25.88;70.91
51287;BME280;37364;46.974;18.916;2022-08-14T08:21:09;156958.88;;;26.13;70.29
51287;BME280;37364;46.974;18.916;2022-08-14T08:23:44;156930.16;;;26.01;69.61
51287;BME280;37364;46.974;18.916;2022-08-14T08:26:20;156992.88;;;26.26;69.42
51287;BME280;37364;46.974;18.916;2022-08-14T08:28:54;157030.84;;;26.41;68.63
51287;BME280;37364;46.974;18.916;2022-08-14T08:31:25;157100.19;;;26.68;68.46
51287;BME280;37364;46.974;18.916;2022-08-14T08:34:03;157032.13;;;26.41;67.47
51287;BME280;37364;46.974;18.916;2022-08-14T08:36:40;157081.88;;;26.61;67.00
51287;BME280;37364;46.974;18.916;2022-08-14T08:39:12;157092.31;;;26.65;68.06
51287;BME280;37364;46.974;18.916;2022-08-14T08:41:51;157233.56;;;27.20;69.36
51287;BME280;37364;46.974;18.916;2022-08-14T08:44:28;157280.75;;;27.39;68.96
51287;BME280;37364;46.974;18.916;2022-08-14T08:47:00;157308.19;;;27.50;64.82
51287;BME280;37364;46.974;18.916;2022-08-14T08:49:40;157381.50;;;27.78;66.06
51287;BME280;37364;46.974;18.916;2022-08-14T08:52:26;157356.63;;;27.69;69.72
51287;BME280;37364;46.974;18.916;2022-08-14T08:55:23;157313.44;;;27.52;62.00
51287;BME280;37364;46.974;18.916;2022-08-14T08:57:58;157189.09;;;27.03;62.20
51287;BME280;37364;46.974;18.916;2022-08-14T09:00:32;157373.63;;;27.75;63.14
51287;BME280;37364;46.974;18.916;2022-08-14T09:03:14;157388.03;;;27.81;61.17
51287;BME280;37364;46.974;18.916;2022-08-14T09:05:51;157457.44;;;28.08;60.13
51287;BME280;37364;46.974;18.916;2022-08-14T09:08:23;157426.03;;;27.96;58.40
51287;BME280;37364;46.974;18.916;2022-08-14T09:11:00;157492.78;;;28.22;59.08
51287;BME280;37364;46.974;18.916;2022-08-14T09:13:52;157457.44;;;28.08;60.43
51287;BME280;37364;46.974;18.916;2022-08-14T09:16:24;157403.72;;;27.87;59.28
51287;BME280;37364;46.974;18.916;2022-08-14T09:18:54;157445.69;;;28.04;58.08
51287;BME280;37364;46.974;18.916;2022-08-14T09:21:26;157505.88;;;28.27;61.95
51287;BME280;37364;46.974;18.916;2022-08-14T09:23:58;157665.66;;;28.90;56.00
51287;BME280;37364;46.974;18.916;2022-08-14T09:26:49;157668.25;;;28.91;55.38
51287;BME280;37364;46.974;18.916;2022-08-14T09:29:22;157766.53;;;29.29;53.10
51287;BME280;37364;46.974;18.916;2022-08-14T09:31:57;157687.88;;;28.98;54.15
51287;BME280;37364;46.974;18.916;2022-08-14T09:34:42;157625.06;;;28.74;52.62
51287;BME280;37364;46.974;18.916;2022-08-14T09:37:34;157725.94;;;29.13;52.93
51287;BME280;37364;46.974;18.916;2022-08-14T09:40:13;157815.00;;;29.48;55.21
51287;BME280;37364;46.974;18.916;2022-08-14T09:42:54;157880.53;;;29.74;57.68
51287;BME280;37364;46.974;18.916;2022-08-14T09:45:34;157867.34;;;29.69;54.65
51287;BME280;37364;46.974;18.916;2022-08-14T09:48:20;157932.91;;;29.94;49.91
51287;BME280;37364;46.974;18.916;2022-08-14T09:50:58;157851.66;;;29.63;49.01
51287;BME280;37364;46.974;18.916;2022-08-14T09:53:35;157773.06;;;29.32;50.66
51287;BME280;37364;46.974;18.916;2022-08-14T09:56:30;157694.47;;;29.01;46.28
51287;BME280;37364;46.974;18.916;2022-08-14T09:59:10;157805.81;;;29.45;49.00
51287;BME280;37364;46.974;18.916;2022-08-14T10:01:45;157911.94;;;29.86;50.48
51287;BME280;37364;46.974;18.916;2022-08-14T10:04:21;158058.72;;;30.44;48.95
51287;BME280;37364;46.974;18.916;2022-08-14T10:07:05;158083.63;;;30.53;48.24
51287;BME280;37364;46.974;18.916;2022-08-14T10:09:48;157801.88;;;29.43;46.90
51287;BME280;37364;46.974;18.916;2022-08-14T10:12:45;157854.25;;;29.64;46.93
51287;BME280;37364;46.974;18.916;2022-08-14T10:15:22;157965.69;;;30.07;48.54
51287;BME280;37364;46.974;18.916;2022-08-14T10:18:07;157828.06;;;29.53;42.84
51287;BME280;37364;46.974;18.916;2022-08-14T10:20:51;157801.88;;;29.43;44.17
51287;BME280;37364;46.974;18.916;2022-08-14T10:23:25;157728.53;;;29.14;44.14
51287;BME280;37364;46.974;18.916;2022-08-14T10:26:04;157787.47;;;29.37;45.17
51287;BME280;37364;46.974;18.916;2022-08-14T10:28:50;157813.66;;;29.48;45.33
51287;BME280;37364;46.974;18.916;2022-08-14T10:31:42;158088.88;;;30.55;47.16
51287;BME280;37364;46.974;18.916;2022-08-14T10:34:19;158015.47;;;30.27;46.48
51287;BME280;37364;46.974;18.916;2022-08-14T10:37:03;157887.06;;;29.76;44.13
51287;BME280;37364;46.974;18.916;2022-08-14T10:39:42;157859.47;;;29.66;42.03
51287;BME280;37364;46.974;18.916;2022-08-14T10:42:34;157762.56;;;29.28;46.45
51287;BME280;37364;46.974;18.916;2022-08-14T10:45:16;157766.53;;;29.29;44.82
51287;BME280;37364;46.974;18.916;2022-08-14T10:47:48;157830.69;;;29.54;44.56
51287;BME280;37364;46.974;18.916;2022-08-14T10:50:42;157830.69;;;29.54;44.97
51287;BME280;37364;46.974;18.916;2022-08-14T10:53:28;157910.66;;;29.86;45.66
51287;BME280;37364;46.974;18.916;2022-08-14T10:56:00;157931.59;;;29.94;47.63
51287;BME280;37364;46.974;18.916;2022-08-14T10:58:48;157807.13;;;29.45;41.04
51287;BME280;37364;46.974;18.916;2022-08-14T11:01:29;157974.84;;;30.11;43.51
51287;BME280;37364;46.974;18.916;2022-08-14T11:04:19;157952.56;;;30.02;40.10
51287;BME280;37364;46.974;18.916;2022-08-14T11:06:59;158175.44;;;30.89;43.54
51287;BME280;37364;46.974;18.916;2022-08-14T11:09:31;158014.13;;;30.26;37.27
51287;BME280;37364;46.974;18.916;2022-08-14T11:12:07;158178.03;;;30.90;40.14
51287;BME280;37364;46.974;18.916;2022-08-14T11:14:58;158178.03;;;30.90;37.97
51287;BME280;37364;46.974;18.916;2022-08-14T11:17:30;158073.16;;;30.49;41.21
51287;BME280;37364;46.974;18.916;2022-08-14T11:20:03;158105.94;;;30.62;38.91
51287;BME280;37364;46.974;18.916;2022-08-14T11:22:46;158188.53;;;30.94;40.43
51287;BME280;37364;46.974;18.916;2022-08-14T11:25:29;158366.88;;;31.64;39.57
51287;BME280;37364;46.974;18.916;2022-08-14T11:28:11;158318.34;;;31.45;39.20
51287;BME280;37364;46.974;18.916;2022-08-14T11:30:47;158352.44;;;31.59;37.72
51287;BME280;37364;46.974;18.916;2022-08-14T11:33:25;158134.72;;;30.73;37.01
51287;BME280;37364;46.974;18.916;2022-08-14T11:35:59;158339.31;;;31.53;37.02
51287;BME280;37364;46.974;18.916;2022-08-14T11:38:47;158239.63;;;31.14;39.46
51287;BME280;37364;46.974;18.916;2022-08-14T11:41:20;158226.56;;;31.09;37.36
51287;BME280;37364;46.974;18.916;2022-08-14T11:43:53;158137.38;;;30.74;37.93
51287;BME280;37364;46.974;18.916;2022-08-14T11:46:24;158041.72;;;30.37;40.82
51287;BME280;37364;46.974;18.916;2022-08-14T11:49:04;158088.88;;;30.55;41.50
51287;BME280;37364;46.974;18.916;2022-08-14T11:51:36;158036.47;;;30.35;44.03
51287;BME280;37364;46.974;18.916;2022-08-14T11:54:23;158260.66;;;31.23;39.74
51287;BME280;37364;46.974;18.916;2022-08-14T11:57:01;158278.97;;;31.30;39.41
51287;BME280;37364;46.974;18.916;2022-08-14T11:59:31;158290.78;;;31.34;37.66
51287;BME280;37364;46.974;18.916;2022-08-14T12:02:10;158267.19;;;31.25;35.15
51287;BME280;37364;46.974;18.916;2022-08-14T12:05:01;158416.69;;;31.84;38.93
51287;BME280;37364;46.974;18.916;2022-08-14T12:07:47;158390.44;;;31.73;35.63
51287;BME280;37364;46.974;18.916;2022-08-14T12:10:20;158309.13;;;31.42;36.06
51287;BME280;37364;46.974;18.916;2022-08-14T12:13:12;158349.78;;;31.58;35.91
51287;BME280;37364;46.974;18.916;2022-08-14T12:15:45;158415.34;;;31.83;35.77
51287;BME280;37364;46.974;18.916;2022-08-14T12:18:28;158456.03;;;31.99;37.39
51287;BME280;37364;46.974;18.916;2022-08-14T12:21:11;158507.22;;;32.19;35.11
51287;BME280;37364;46.974;18.916;2022-08-14T12:23:46;158336.72;;;31.52;36.58
51287;BME280;37364;46.974;18.916;2022-08-14T12:26:20;158209.47;;;31.03;38.98
51287;BME280;37364;46.974;18.916;2022-08-14T12:29:08;158318.34;;;31.45;35.53
51287;BME280;37364;46.974;18.916;2022-08-14T12:31:39;158271.13;;;31.27;34.81
51287;BME280;37364;46.974;18.916;2022-08-14T12:34:13;158286.84;;;31.33;36.37
51287;BME280;37364;46.974;18.916;2022-08-14T12:36:48;158284.19;;;31.32;34.36
51287;BME280;37364;46.974;18.916;2022-08-14T12:39:21;158479.66;;;32.08;33.71
51287;BME280;37364;46.974;18.916;2022-08-14T12:41:55;158299.94;;;31.38;33.49
51287;BME280;37364;46.974;18.916;2022-08-14T12:44:34;158290.78;;;31.34;34.40
51287;BME280;37364;46.974;18.916;2022-08-14T12:47:06;158557.06;;;32.39;36.43
51287;BME280;37364;46.974;18.916;2022-08-14T12:49:47;158496.75;;;32.15;36.27
51287;BME280;37364;46.974;18.916;2022-08-14T12:52:29;158467.88;;;32.04;34.87
51287;BME280;37364;46.974;18.916;2022-08-14T12:55:20;158385.19;;;31.71;35.71
51287;BME280;37364;46.974;18.916;2022-08-14T12:58:12;158311.75;;;31.43;37.01
51287;BME280;37364;46.974;18.916;2022-08-14T13:01:03;158210.84;;;31.03;35.66
51287;BME280;37364;46.974;18.916;2022-08-14T13:03:46;158150.50;;;30.80;37.64
51287;BME280;37364;46.974;18.916;2022-08-14T13:06:18;158129.47;;;30.71;37.33
51287;BME280;37364;46.974;18.916;2022-08-14T13:08:51;158151.78;;;30.80;37.28
51287;BME280;37364;46.974;18.916;2022-08-14T13:11:29;158062.66;;;30.45;37.17
51287;BME280;37364;46.974;18.916;2022-08-14T13:14:10;158179.34;;;30.91;36.00
51287;BME280;37364;46.974;18.916;2022-08-14T13:16:44;158231.78;;;31.11;35.65
51287;BME280;37364;46.974;18.916;2022-08-14T13:19:17;158400.97;;;31.78;35.67
51287;BME280;37364;46.974;18.916;2022-08-14T13:21:53;158313.06;;;31.43;35.59
51287;BME280;37364;46.974;18.916;2022-08-14T13:24:37;158391.78;;;31.74;35.83
51287;BME280;37364;46.974;18.916;2022-08-14T13:27:10;158355.03;;;31.60;33.27
51287;BME280;37364;46.974;18.916;2022-08-14T13:29:43;158369.47;;;31.65;35.25
51287;BME280;37364;46.974;18.916;2022-08-14T13:32:14;158498.03;;;32.16;35.39
51287;BME280;37364;46.974;18.916;2022-08-14T13:34:46;158462.63;;;32.02;33.86